createdAt,value
2022-11-30T00:00:04.833Z,0.50
2022-11-30T00:02:38.890Z,0.60
2022-11-30T00:05:10.779Z,0.60
2022-11-30T00:07:43.120Z,0.50
2022-11-30T00:10:15.123Z,0.60
2022-11-30T00:12:47.022Z,0.60
2022-11-30T00:15:18.833Z,0.50
2022-11-30T00:17:55.847Z,0.60
2022-11-30T00:20:30.096Z,0.60
2022-11-30T00:23:04.337Z,0.50
2022-11-30T00:25:36.979Z,0.50
2022-11-30T00:28:08.788Z,0.50
2022-11-30T00:30:40.566Z,0.50
2022-11-30T00:33:12.409Z,0.50
2022-11-30T00:35:44.122Z,0.50
2022-11-30T00:38:15.867Z,0.50
2022-11-30T00:40:47.580Z,0.60
2022-11-30T00:43:19.508Z,0.50
2022-11-30T00:45:51.368Z,0.50
2022-11-30T00:48:23.306Z,0.50
2022-11-30T00:50:57.816Z,0.50
2022-11-30T00:53:32.050Z,0.60
2022-11-30T00:56:03.911Z,0.50
2022-11-30T00:58:40.677Z,0.50
2022-11-30T01:01:12.435Z,0.50
2022-11-30T01:03:46.377Z,0.50
2022-11-30T01:06:18.145Z,0.50
2022-11-30T01:08:50.107Z,0.50
2022-11-30T01:11:26.364Z,0.50
2022-11-30T01:13:59.207Z,0.50
2022-11-30T01:16:32.079Z,0.50
2022-11-30T01:19:04.212Z,0.50
2022-11-30T01:21:35.928Z,0.50
2022-11-30T01:24:10.755Z,0.50
2022-11-30T01:26:42.465Z,0.50
2022-11-30T01:29:14.253Z,0.50
2022-11-30T01:31:45.956Z,0.50
2022-11-30T01:34:17.710Z,0.60
2022-11-30T01:36:49.461Z,0.60
2022-11-30T01:39:21.237Z,0.60
2022-11-30T01:41:54.716Z,0.60
2022-11-30T01:44:27.281Z,0.60
2022-11-30T01:47:01.023Z,0.60
2022-11-30T01:49:38.132Z,0.60
2022-11-30T01:52:18.649Z,0.60
2022-11-30T01:54:54.089Z,0.60
2022-11-30T01:57:35.802Z,0.60
2022-11-30T02:00:09.857Z,0.60
2022-11-30T02:02:59.219Z,0.50
2022-11-30T02:05:34.630Z,0.60
2022-11-30T02:08:07.598Z,0.60
2022-11-30T02:10:41.116Z,0.60
2022-11-30T02:13:27.401Z,0.60
2022-11-30T02:16:06.557Z,0.50
2022-11-30T02:18:58.603Z,0.50
2022-11-30T02:21:35.955Z,0.50
2022-11-30T02:24:26.502Z,0.50
2022-11-30T02:27:16.959Z,0.60
2022-11-30T02:29:51.513Z,0.60
2022-11-30T02:32:27.622Z,0.50
2022-11-30T02:35:00.555Z,0.50
2022-11-30T02:37:34.227Z,0.50
2022-11-30T02:40:10.217Z,0.50
2022-11-30T02:42:42.445Z,0.50
2022-11-30T02:45:14.385Z,0.50
2022-11-30T02:47:48.987Z,0.50
2022-11-30T02:50:41.069Z,0.50
2022-11-30T02:53:13.604Z,0.50
2022-11-30T02:55:45.309Z,0.50
2022-11-30T02:58:17.452Z,0.50
2022-11-30T03:00:49.945Z,0.50
2022-11-30T03:03:22.235Z,0.50
2022-11-30T03:05:54.027Z,0.50
2022-11-30T03:08:25.788Z,0.50
2022-11-30T03:11:01.297Z,0.50
2022-11-30T03:13:33.692Z,0.50
2022-11-30T03:16:06.447Z,0.50
2022-11-30T03:18:38.658Z,0.50
2022-11-30T03:21:11.369Z,0.50
2022-11-30T03:23:43.170Z,0.50
2022-11-30T03:26:14.871Z,0.50
2022-11-30T03:28:46.692Z,0.50
2022-11-30T03:31:18.498Z,0.50
2022-11-30T03:33:50.281Z,0.50
2022-11-30T03:36:21.980Z,0.50
2022-11-30T03:38:53.754Z,0.50
2022-11-30T03:41:28.030Z,0.60
2022-11-30T03:44:02.579Z,0.50
2022-11-30T03:46:37.159Z,0.50
2022-11-30T03:49:08.943Z,0.50
2022-11-30T03:51:40.661Z,0.50
2022-11-30T03:54:14.912Z,0.50
2022-11-30T03:56:46.605Z,0.50
2022-11-30T03:59:18.377Z,0.50
2022-11-30T04:01:50.177Z,0.80
2022-11-30T04:04:21.965Z,0.50
2022-11-30T04:06:53.960Z,0.50
2022-11-30T04:09:25.711Z,0.50
2022-11-30T04:11:57.399Z,0.50
2022-11-30T04:14:29.168Z,0.50
2022-11-30T04:17:00.857Z,0.50
2022-11-30T04:19:32.634Z,0.50
2022-11-30T04:22:06.744Z,0.50
2022-11-30T04:24:38.495Z,0.50
2022-11-30T04:27:10.179Z,0.50
2022-11-30T04:29:41.960Z,0.50
2022-11-30T04:32:13.713Z,0.50
2022-11-30T04:34:45.815Z,0.50
2022-11-30T04:37:17.725Z,0.50
2022-11-30T04:39:51.913Z,0.50
2022-11-30T04:42:23.588Z,0.40
2022-11-30T04:44:55.386Z,0.40
2022-11-30T04:47:27.138Z,0.50
2022-11-30T04:49:58.870Z,0.50
2022-11-30T04:52:30.605Z,0.50
2022-11-30T04:55:04.409Z,0.40
2022-11-30T04:57:36.113Z,0.50
2022-11-30T05:00:08.228Z,0.50
2022-11-30T05:02:40.030Z,0.50
2022-11-30T05:05:11.830Z,0.40
2022-11-30T05:07:43.625Z,0.40
2022-11-30T05:10:15.411Z,0.40
2022-11-30T05:12:47.115Z,0.50
2022-11-30T05:15:19.037Z,0.50
2022-11-30T05:17:50.734Z,0.50
2022-11-30T05:20:24.680Z,0.50
2022-11-30T05:22:56.443Z,0.50
2022-11-30T05:25:28.214Z,0.50
2022-11-30T05:27:59.923Z,0.40
2022-11-30T05:30:31.675Z,0.50
2022-11-30T05:33:03.453Z,0.50
2022-11-30T05:35:35.228Z,0.50
2022-11-30T05:38:07.081Z,0.50
2022-11-30T05:40:38.824Z,0.50
2022-11-30T05:43:10.560Z,0.50
2022-11-30T05:45:42.338Z,0.40
2022-11-30T05:48:14.053Z,0.50
2022-11-30T05:50:45.811Z,0.50
2022-11-30T05:53:17.711Z,0.40
2022-11-30T05:55:49.516Z,0.70
2022-11-30T05:58:23.757Z,0.40
2022-11-30T06:00:55.544Z,0.40
2022-11-30T06:03:30.375Z,0.40
2022-11-30T06:06:02.277Z,0.40
2022-11-30T06:08:33.983Z,0.40
2022-11-30T06:11:05.843Z,0.40
2022-11-30T06:13:37.678Z,0.40
2022-11-30T06:16:09.635Z,0.40
2022-11-30T06:18:43.745Z,0.40
2022-11-30T06:21:19.641Z,0.40
2022-11-30T06:23:57.064Z,0.40
2022-11-30T06:26:28.843Z,0.40
2022-11-30T06:29:02.924Z,0.40
2022-11-30T06:31:34.758Z,0.40
2022-11-30T06:34:06.486Z,0.40
2022-11-30T06:36:38.406Z,0.40
2022-11-30T06:39:11.013Z,0.40
2022-11-30T06:41:42.774Z,0.40
2022-11-30T06:44:14.481Z,0.40
2022-11-30T06:46:46.241Z,0.40
2022-11-30T06:49:17.921Z,0.40
2022-11-30T06:51:49.674Z,0.40
2022-11-30T06:54:21.407Z,0.40
2022-11-30T06:56:53.153Z,0.40
2022-11-30T06:59:27.341Z,0.40
2022-11-30T07:02:06.349Z,0.40
2022-11-30T07:04:40.631Z,0.40
2022-11-30T07:07:14.765Z,0.40
2022-11-30T07:09:48.612Z,0.40
2022-11-30T07:12:20.450Z,0.40
2022-11-30T07:14:53.450Z,0.40
2022-11-30T07:17:25.204Z,0.40
2022-11-30T07:19:56.958Z,0.40
2022-11-30T07:22:28.718Z,0.40
2022-11-30T07:25:18.919Z,0.40
2022-11-30T07:27:50.673Z,0.40
2022-11-30T07:30:22.425Z,0.40
2022-11-30T07:32:54.177Z,0.40
2022-11-30T07:35:25.936Z,0.40
2022-11-30T07:37:57.660Z,0.40
2022-11-30T07:40:29.390Z,0.40
2022-11-30T07:43:01.162Z,0.40
2022-11-30T07:45:32.890Z,0.40
2022-11-30T07:48:04.713Z,0.50
2022-11-30T07:50:36.475Z,0.40
2022-11-30T07:53:08.252Z,0.40
2022-11-30T07:55:40.082Z,0.40
2022-11-30T07:58:17.118Z,0.40
2022-11-30T08:00:49.321Z,0.50
2022-11-30T08:03:21.390Z,0.50
2022-11-30T08:05:53.138Z,0.50
2022-11-30T08:08:27.302Z,0.50
2022-11-30T08:10:59.182Z,0.50
2022-11-30T08:13:33.395Z,0.50
2022-11-30T08:16:06.130Z,0.50
2022-11-30T08:18:37.976Z,0.50
2022-11-30T08:21:10.674Z,0.50
2022-11-30T08:23:43.690Z,0.50
2022-11-30T08:26:16.734Z,0.50
2022-11-30T08:28:49.637Z,0.50
2022-11-30T08:31:22.902Z,0.50
2022-11-30T08:33:55.830Z,0.50
2022-11-30T08:36:28.182Z,0.50
2022-11-30T08:39:00.591Z,0.50
2022-11-30T08:41:33.073Z,0.40
2022-11-30T08:44:07.299Z,0.50
2022-11-30T08:46:54.504Z,0.50
2022-11-30T08:49:26.377Z,0.50
2022-11-30T08:54:52.767Z,0.60
2022-11-30T08:57:26.605Z,0.60
2022-11-30T08:59:58.367Z,0.60
2022-11-30T09:02:30.163Z,0.60
2022-11-30T09:05:04.308Z,0.60
2022-11-30T09:07:36.136Z,0.60
2022-11-30T09:10:10.555Z,0.60
2022-11-30T09:12:42.398Z,0.60
2022-11-30T09:15:16.674Z,1.10
2022-11-30T09:17:48.488Z,0.60
2022-11-30T09:20:20.382Z,0.50
2022-11-30T09:22:53.464Z,0.60
2022-11-30T09:25:25.383Z,0.60
2022-11-30T09:27:57.156Z,0.60
2022-11-30T09:30:29.211Z,0.60
2022-11-30T09:33:03.447Z,0.60
2022-11-30T09:35:35.152Z,0.60
2022-11-30T09:38:06.962Z,0.70
2022-11-30T09:40:40.019Z,0.70
2022-11-30T09:43:20.915Z,0.70
2022-11-30T09:45:56.675Z,0.70
2022-11-30T09:48:43.742Z,0.70
2022-11-30T09:51:26.840Z,0.70
2022-11-30T09:54:02.728Z,0.60
2022-11-30T09:56:37.293Z,0.60
2022-11-30T09:59:12.044Z,0.70
2022-11-30T10:01:46.115Z,0.70
2022-11-30T10:04:21.214Z,0.70
2022-11-30T10:07:02.112Z,0.70
2022-11-30T10:10:02.941Z,0.60
2022-11-30T10:12:52.705Z,0.70
2022-11-30T10:15:32.124Z,0.70
2022-11-30T10:18:24.139Z,0.70
2022-11-30T10:21:04.036Z,0.80
2022-11-30T10:23:55.183Z,0.80
2022-11-30T10:26:32.191Z,0.80
2022-11-30T10:29:20.821Z,0.80
2022-11-30T10:32:00.342Z,0.80
2022-11-30T10:34:34.709Z,0.80
2022-11-30T10:37:12.688Z,0.80
2022-11-30T10:40:01.579Z,0.80
2022-11-30T10:42:42.669Z,0.80
2022-11-30T10:45:17.700Z,0.80
2022-11-30T10:48:12.385Z,0.80
2022-11-30T10:50:44.199Z,0.80
2022-11-30T10:53:16.114Z,0.80
2022-11-30T10:55:55.387Z,0.80
2022-11-30T10:58:47.390Z,0.80
2022-11-30T11:01:43.402Z,0.80
2022-11-30T11:04:28.078Z,0.80
2022-11-30T11:07:08.651Z,0.90
2022-11-30T11:09:42.341Z,0.90
2022-11-30T11:12:14.072Z,0.90
2022-11-30T11:14:46.067Z,0.90
2022-11-30T11:17:17.781Z,0.90
2022-11-30T11:19:50.616Z,0.90
2022-11-30T11:22:26.489Z,0.90
2022-11-30T11:25:16.989Z,0.90
2022-11-30T11:27:57.577Z,0.90
2022-11-30T11:30:30.523Z,0.90
2022-11-30T11:33:02.385Z,0.90
2022-11-30T11:35:36.466Z,0.90
2022-11-30T11:38:27.312Z,0.90
2022-11-30T11:41:03.950Z,0.90
2022-11-30T11:43:40.831Z,0.90
2022-11-30T11:46:13.611Z,0.90
2022-11-30T11:48:56.242Z,0.90
2022-11-30T11:51:31.077Z,1.00
2022-11-30T11:54:06.515Z,1.00
2022-11-30T11:56:38.345Z,1.60
2022-11-30T11:59:10.558Z,1.00
2022-11-30T12:02:07.914Z,1.00
2022-11-30T12:04:39.740Z,1.10
2022-11-30T12:07:19.446Z,1.00
2022-11-30T12:10:02.961Z,1.00
2022-11-30T12:12:34.906Z,1.10
2022-11-30T12:15:12.994Z,1.10
2022-11-30T12:18:22.317Z,1.10
2022-11-30T12:21:01.203Z,1.10
2022-11-30T12:23:37.830Z,1.10
2022-11-30T12:26:29.730Z,1.10
2022-11-30T12:29:01.623Z,1.10
2022-11-30T12:31:45.521Z,1.10
2022-11-30T12:34:22.787Z,1.10
2022-11-30T12:37:03.213Z,1.20
2022-11-30T12:39:53.804Z,1.20
2022-11-30T12:42:27.972Z,1.20
2022-11-30T12:45:17.784Z,1.30
2022-11-30T12:48:10.871Z,1.30
2022-11-30T12:50:59.675Z,1.30
2022-11-30T12:53:34.420Z,1.30
2022-11-30T12:56:17.205Z,1.20
2022-11-30T12:58:57.481Z,1.20
2022-11-30T13:01:47.428Z,1.20
2022-11-30T13:04:27.552Z,1.10
2022-11-30T13:07:04.636Z,1.10
2022-11-30T13:09:44.840Z,1.10
2022-11-30T13:12:19.463Z,1.10
2022-11-30T13:14:55.043Z,1.10
2022-11-30T13:17:26.997Z,1.10
2022-11-30T13:19:58.711Z,1.00
2022-11-30T13:22:42.597Z,1.00
2022-11-30T13:25:59.756Z,1.00
2022-11-30T13:28:27.434Z,1.10
2022-11-30T13:31:06.500Z,1.10
2022-11-30T13:33:39.085Z,1.10
2022-11-30T13:36:27.715Z,1.40
2022-11-30T13:39:09.859Z,1.10
2022-11-30T13:41:43.603Z,1.00
2022-11-30T13:44:32.647Z,1.00
2022-11-30T13:47:05.723Z,1.00
2022-11-30T13:49:40.101Z,1.00
2022-11-30T13:52:23.973Z,1.00
2022-11-30T13:54:58.317Z,0.90
2022-11-30T13:57:30.188Z,0.90
2022-11-30T14:00:05.071Z,0.90
2022-11-30T14:02:42.079Z,0.90
2022-11-30T14:05:17.029Z,0.90
2022-11-30T14:08:00.703Z,0.90
2022-11-30T14:10:36.358Z,0.80
2022-11-30T14:13:11.140Z,0.80
2022-11-30T14:15:42.860Z,0.90
2022-11-30T14:18:21.744Z,0.90
2022-11-30T14:21:04.183Z,0.90
2022-11-30T14:23:38.980Z,0.90
2022-11-30T14:26:13.141Z,0.90
2022-11-30T14:28:50.883Z,0.90
2022-11-30T14:31:25.311Z,0.90
2022-11-30T14:34:06.884Z,0.90
2022-11-30T14:36:41.731Z,0.90
2022-11-30T14:39:27.738Z,0.90
2022-11-30T14:41:59.985Z,0.90
2022-11-30T14:44:35.932Z,0.90
2022-11-30T14:47:16.899Z,0.80
2022-11-30T14:49:52.192Z,0.90
2022-11-30T14:52:34.790Z,0.80
2022-11-30T14:55:09.571Z,0.80
2022-11-30T14:57:56.567Z,0.80
2022-11-30T15:00:30.411Z,0.80
2022-11-30T15:03:03.424Z,0.80
2022-11-30T15:05:37.854Z,0.80
2022-11-30T15:08:14.004Z,0.80
2022-11-30T15:10:45.894Z,0.80
2022-11-30T15:13:19.408Z,0.80
2022-11-30T15:15:53.124Z,0.70
2022-11-30T15:18:25.510Z,0.80
2022-11-30T15:21:03.220Z,0.80
2022-11-30T15:23:37.609Z,0.80
2022-11-30T15:26:14.044Z,0.80
2022-11-30T15:28:49.699Z,1.20
2022-11-30T15:31:21.739Z,0.80
2022-11-30T15:33:53.562Z,0.80
2022-11-30T15:36:33.271Z,0.90
2022-11-30T15:39:06.669Z,0.80
2022-11-30T15:41:39.162Z,0.80
2022-11-30T15:44:22.784Z,0.90
2022-11-30T15:46:56.176Z,0.90
2022-11-30T15:49:29.648Z,0.80
2022-11-30T15:52:02.335Z,1.00
2022-11-30T15:54:44.196Z,0.80
2022-11-30T15:57:17.018Z,0.80
2022-11-30T16:00:07.526Z,0.80
2022-11-30T16:02:39.440Z,0.80
2022-11-30T16:05:14.523Z,0.80
2022-11-30T16:07:49.886Z,0.80
2022-11-30T16:10:23.980Z,0.80
2022-11-30T16:12:55.865Z,0.80
2022-11-30T16:15:31.908Z,0.80
2022-11-30T16:18:17.561Z,0.80
2022-11-30T16:20:53.782Z,0.80
2022-11-30T16:23:26.107Z,0.80
2022-11-30T16:25:57.880Z,0.80
2022-11-30T16:28:29.639Z,0.80
2022-11-30T16:31:01.400Z,0.80
2022-11-30T16:33:33.236Z,0.90
2022-11-30T16:36:08.767Z,0.80
2022-11-30T16:38:40.654Z,0.80
2022-11-30T16:41:16.880Z,0.80
2022-11-30T16:43:50.103Z,0.80
2022-11-30T16:46:23.116Z,0.80
2022-11-30T16:48:55.231Z,0.80
2022-11-30T16:51:28.615Z,0.80
2022-11-30T16:54:00.949Z,0.80
2022-11-30T16:56:33.348Z,0.80
2022-11-30T16:59:05.199Z,0.80
2022-11-30T17:01:39.657Z,0.70
2022-11-30T17:04:17.578Z,0.70
2022-11-30T17:06:50.860Z,0.70
2022-11-30T17:09:23.444Z,0.70
2022-11-30T17:11:55.162Z,0.80
2022-11-30T17:14:27.007Z,0.70
2022-11-30T17:17:00.245Z,0.70
2022-11-30T17:19:32.220Z,0.70
2022-11-30T17:22:03.914Z,0.70
2022-11-30T17:24:35.727Z,0.70
2022-11-30T17:27:07.575Z,0.70
2022-11-30T17:29:40.019Z,0.60
2022-11-30T17:32:11.762Z,0.60
2022-11-30T17:34:43.556Z,0.60
2022-11-30T17:37:15.291Z,0.60
2022-11-30T17:39:47.152Z,0.60
2022-11-30T17:42:18.863Z,0.60
2022-11-30T17:44:50.918Z,0.60
2022-11-30T17:47:25.717Z,0.50
2022-11-30T17:49:57.752Z,0.50
2022-11-30T17:52:29.501Z,0.50
2022-11-30T17:55:01.328Z,0.60
2022-11-30T17:57:33.163Z,0.60
2022-11-30T18:00:06.011Z,0.60
2022-11-30T18:02:37.874Z,0.60
2022-11-30T18:05:09.856Z,0.60
2022-11-30T18:07:41.638Z,0.50
2022-11-30T18:10:14.122Z,0.60
2022-11-30T18:12:48.143Z,0.60
2022-11-30T18:15:19.970Z,0.60
2022-11-30T18:17:51.841Z,0.60
2022-11-30T18:20:23.684Z,0.60
2022-11-30T18:22:57.696Z,0.50
2022-11-30T18:25:29.556Z,0.60
2022-11-30T18:28:04.151Z,0.60
2022-11-30T18:30:37.032Z,0.60
2022-11-30T18:33:08.894Z,0.60
2022-11-30T18:35:40.711Z,0.60
2022-11-30T18:38:12.961Z,0.60
2022-11-30T18:40:44.860Z,0.60
2022-11-30T18:43:16.587Z,0.60
2022-11-30T18:45:48.406Z,0.70
2022-11-30T18:48:20.145Z,0.70
2022-11-30T18:50:52.829Z,0.70
2022-11-30T18:53:24.559Z,0.60
2022-11-30T18:56:06.602Z,0.70
2022-11-30T18:58:38.369Z,0.60
2022-11-30T19:01:15.035Z,0.70
2022-11-30T19:04:06.497Z,0.70
2022-11-30T19:06:39.223Z,0.70
2022-11-30T19:09:12.626Z,0.70
2022-11-30T19:11:44.538Z,0.70
2022-11-30T19:14:19.882Z,0.70
2022-11-30T19:16:51.698Z,0.70
2022-11-30T19:19:23.644Z,0.70
2022-11-30T19:21:58.344Z,0.80
2022-11-30T19:24:30.350Z,0.70
2022-11-30T19:27:02.183Z,0.70
2022-11-30T19:29:33.900Z,0.70
2022-11-30T19:32:05.718Z,0.70
2022-11-30T19:34:37.534Z,0.70
2022-11-30T19:37:09.348Z,0.70
2022-11-30T19:39:41.073Z,0.70
2022-11-30T19:42:12.868Z,0.80
2022-11-30T19:44:44.806Z,0.80
2022-11-30T19:47:16.613Z,0.70
2022-11-30T19:49:50.960Z,0.70
2022-11-30T19:52:23.043Z,0.70
2022-11-30T19:54:54.940Z,0.70
2022-11-30T19:57:26.721Z,0.70
2022-11-30T19:59:58.435Z,0.70
2022-11-30T20:02:30.276Z,0.70
2022-11-30T20:05:04.349Z,0.70
2022-11-30T20:07:36.582Z,0.70
2022-11-30T20:10:10.070Z,0.70
2022-11-30T20:12:41.932Z,0.70
2022-11-30T20:15:13.663Z,0.70
2022-11-30T20:17:47.795Z,0.70
2022-11-30T20:20:19.579Z,0.60
2022-11-30T20:22:51.403Z,0.60
2022-11-30T20:25:23.303Z,0.60
2022-11-30T20:27:57.353Z,0.60
2022-11-30T20:30:29.407Z,0.60
2022-11-30T20:33:02.389Z,0.60
2022-11-30T20:35:35.185Z,0.60
2022-11-30T20:38:07.237Z,0.60
2022-11-30T20:40:39.948Z,0.60
2022-11-30T20:43:11.679Z,0.60
2022-11-30T20:45:43.460Z,0.60
2022-11-30T20:48:15.419Z,0.60
2022-11-30T20:51:14.052Z,0.50
2022-11-30T20:53:41.670Z,0.50
2022-11-30T20:56:13.766Z,0.70
2022-11-30T20:58:45.567Z,0.50
2022-11-30T21:01:19.183Z,0.50
2022-11-30T21:03:51.071Z,0.50
2022-11-30T21:06:22.826Z,0.50
2022-11-30T21:08:54.618Z,0.50
2022-11-30T21:11:26.848Z,0.60
2022-11-30T21:13:58.813Z,0.50
2022-11-30T21:16:33.360Z,0.50
2022-11-30T21:19:05.489Z,0.60
2022-11-30T21:21:40.059Z,0.50
2022-11-30T21:24:14.401Z,0.60
2022-11-30T21:26:46.169Z,0.50
2022-11-30T21:29:20.698Z,0.50
2022-11-30T21:31:52.535Z,0.50
2022-11-30T21:34:25.576Z,0.50
2022-11-30T21:36:57.348Z,0.50
2022-11-30T21:39:31.240Z,0.50
2022-11-30T21:42:03.066Z,0.60
2022-11-30T21:44:34.856Z,0.60
2022-11-30T21:47:06.651Z,0.60
2022-11-30T21:49:40.817Z,0.60
2022-11-30T21:52:12.532Z,0.60
2022-11-30T21:54:44.406Z,0.60
2022-11-30T21:57:18.582Z,0.60
2022-11-30T21:59:50.677Z,0.60
2022-11-30T22:02:22.543Z,1.00
2022-11-30T22:04:54.317Z,0.60
2022-11-30T22:07:32.068Z,0.60
2022-11-30T22:10:04.024Z,0.60
2022-11-30T22:12:35.761Z,0.60
2022-11-30T22:15:10.332Z,0.60
2022-11-30T22:17:44.420Z,0.70
2022-11-30T22:20:16.280Z,0.70
2022-11-30T22:22:48.025Z,0.70
2022-11-30T22:25:19.813Z,0.60
2022-11-30T22:27:51.552Z,0.70
2022-11-30T22:30:23.339Z,0.70
2022-11-30T22:32:55.062Z,0.70
2022-11-30T22:35:27.054Z,0.70
2022-11-30T22:38:01.262Z,0.70
2022-11-30T22:40:33.056Z,0.70
2022-11-30T22:43:04.836Z,0.70
2022-11-30T22:45:37.437Z,0.70
2022-11-30T22:48:09.311Z,0.70
2022-11-30T22:50:41.105Z,0.70
2022-11-30T22:53:12.921Z,0.80
2022-11-30T22:55:48.075Z,0.80
2022-11-30T22:58:22.622Z,0.70
2022-11-30T23:00:54.448Z,0.80
2022-11-30T23:03:27.648Z,0.80
2022-11-30T23:05:59.616Z,0.80
2022-11-30T23:08:31.889Z,0.80
2022-11-30T23:11:05.601Z,0.80
2022-11-30T23:13:38.056Z,0.80
2022-11-30T23:16:10.482Z,0.80
2022-11-30T23:18:46.139Z,0.80
2022-11-30T23:21:19.271Z,0.90
2022-11-30T23:23:51.051Z,0.90
2022-11-30T23:26:23.965Z,0.90
2022-11-30T23:28:58.587Z,0.90
2022-11-30T23:31:35.803Z,0.90
2022-11-30T23:34:09.900Z,0.90
2022-11-30T23:36:41.635Z,0.90
2022-11-30T23:39:14.906Z,0.90
2022-11-30T23:41:46.665Z,1.00
2022-11-30T23:44:18.438Z,0.90
2022-11-30T23:46:50.354Z,0.90
2022-11-30T23:49:22.171Z,0.90
2022-11-30T23:51:53.905Z,0.90
2022-11-30T23:54:25.618Z,0.90
2022-11-30T23:56:57.381Z,1.00
2022-11-30T23:59:29.075Z,0.90
